createdAt,value
2022-09-06T00:02:45.036Z,99976.91
2022-09-06T00:05:33.214Z,99965.16
2022-09-06T00:08:21.215Z,99966.69
2022-09-06T00:11:09.283Z,99966.94
2022-09-06T00:13:57.036Z,99975.38
2022-09-06T00:16:44.833Z,99958.00
2022-09-06T00:19:32.616Z,99939.84
2022-09-06T00:22:20.384Z,99929.88
2022-09-06T00:25:08.826Z,99947.00
2022-09-06T00:27:58.861Z,99944.47
2022-09-06T00:30:47.077Z,99934.97
2022-09-06T00:33:34.902Z,99959.53
2022-09-06T00:36:23.423Z,99952.63
2022-09-06T00:39:11.209Z,99946.50
2022-09-06T00:41:58.969Z,99936.78
2022-09-06T00:44:46.838Z,99955.94
2022-09-06T00:47:36.925Z,99951.09
2022-09-06T00:50:25.039Z,99944.72
2022-09-06T00:53:12.922Z,99929.88
2022-09-06T00:56:01.268Z,99929.13
2022-09-06T00:58:49.812Z,99928.63
2022-09-06T01:01:37.714Z,99939.59
2022-09-06T01:04:27.381Z,99942.41
2022-09-06T01:07:55.873Z,99959.53
2022-09-06T01:11:33.485Z,99950.59
2022-09-06T01:15:08.099Z,99960.03
2022-09-06T01:18:41.534Z,99963.63
2022-09-06T01:22:19.281Z,99956.19
2022-09-06T01:25:33.876Z,99938.56
2022-09-06T01:28:42.925Z,99969.00
2022-09-06T01:31:41.625Z,99979.22
2022-09-06T01:37:39.705Z,99956.97
2022-09-06T01:40:28.527Z,99963.38
2022-09-06T01:43:27.342Z,99956.19
2022-09-06T01:46:29.894Z,99949.31
2022-09-06T01:49:41.116Z,99964.63
2022-09-06T01:52:34.140Z,99961.81
2022-09-06T01:55:32.388Z,99965.66
2022-09-06T01:58:57.622Z,99947.28
2022-09-06T02:01:57.747Z,99948.78
2022-09-06T02:04:52.480Z,99968.47
2022-09-06T02:07:42.749Z,100047.69
2022-09-06T02:10:40.215Z,100081.41
2022-09-06T02:13:34.090Z,100049.19
2022-09-06T02:16:26.942Z,100054.63
2022-09-06T02:19:36.914Z,100058.97
2022-09-06T02:22:30.616Z,100050.81
2022-09-06T02:25:50.489Z,100016.78
2022-09-06T02:28:38.557Z,100024.94
2022-09-06T02:31:33.180Z,100038.97
2022-09-06T02:34:21.858Z,100027.97
2022-09-06T02:37:11.389Z,100022.81
2022-09-06T02:40:00.263Z,100017.94
2022-09-06T02:42:48.094Z,100023.00
2022-09-06T02:45:35.823Z,100021.44
2022-09-06T02:48:23.857Z,100017.84
2022-09-06T02:51:11.615Z,99997.09
2022-09-06T02:53:59.314Z,99999.09
2022-09-06T02:56:51.559Z,99986.75
2022-09-06T02:59:40.059Z,99992.53
2022-09-06T03:02:27.850Z,99990.47
2022-09-06T03:05:15.966Z,99984.81
2022-09-06T03:08:03.842Z,99985.81
2022-09-06T03:10:56.460Z,99978.59
2022-09-06T03:13:44.206Z,99954.03
2022-09-06T03:16:32.059Z,99956.53
2022-09-06T03:19:20.165Z,99954.50
2022-09-06T03:22:07.994Z,99951.63
2022-09-06T03:24:55.737Z,99939.06
2022-09-06T03:27:44.291Z,99936.25
2022-09-06T03:30:32.078Z,99923.91
2022-09-06T03:33:20.712Z,99918.91
2022-09-06T03:36:08.780Z,99923.59
2022-09-06T03:38:56.525Z,99928.03
2022-09-06T03:41:44.286Z,99920.28
2022-09-06T03:44:32.089Z,99930.06
2022-09-06T03:47:20.757Z,99923.69
2022-09-06T03:50:09.148Z,99877.72
2022-09-06T03:52:56.871Z,99893.81
2022-09-06T03:55:46.729Z,99880.25
2022-09-06T03:58:34.470Z,99863.66
2022-09-06T04:01:22.612Z,99865.19
2022-09-06T04:04:10.513Z,99838.66
2022-09-06T04:06:58.242Z,99852.75
2022-09-06T04:09:45.987Z,99854.50
2022-09-06T04:12:34.860Z,99849.13
2022-09-06T04:15:22.613Z,99885.69
2022-09-06T04:18:12.892Z,99917.09
2022-09-06T04:21:00.648Z,99920.44
2022-09-06T04:23:48.431Z,99906.09
2022-09-06T04:26:36.488Z,99904.06
2022-09-06T04:29:24.656Z,99905.38
2022-09-06T04:32:12.498Z,99923.00
2022-09-06T04:35:00.305Z,99927.84
2022-09-06T04:37:48.065Z,99933.47
2022-09-06T04:40:35.948Z,99932.16
2022-09-06T04:43:24.120Z,99910.44
2022-09-06T04:46:30.085Z,99920.44
2022-09-06T04:49:17.843Z,99925.03
2022-09-06T04:52:05.605Z,99929.13
2022-09-06T04:54:53.361Z,99951.81
2022-09-06T04:57:45.154Z,99961.53
2022-09-06T05:00:35.762Z,99961.25
2022-09-06T05:03:23.505Z,99945.38
2022-09-06T05:06:18.355Z,99966.13
2022-09-06T05:09:06.086Z,99947.97
2022-09-06T05:11:53.815Z,99951.53
2022-09-06T05:14:41.597Z,99931.56
2022-09-06T05:17:29.324Z,99955.38
2022-09-06T05:20:17.760Z,99965.09
2022-09-06T05:23:05.590Z,99953.06
2022-09-06T05:25:54.083Z,99958.41
2022-09-06T05:28:41.990Z,99953.03
2022-09-06T05:31:32.362Z,99965.03
2022-09-06T05:34:20.142Z,99967.09
2022-09-06T05:37:07.888Z,99963.75
2022-09-06T05:39:55.748Z,99988.56
2022-09-06T05:42:43.529Z,99970.97
2022-09-06T05:45:31.520Z,99980.72
2022-09-06T05:48:19.416Z,99980.47
2022-09-06T05:51:12.963Z,99987.38
2022-09-06T05:54:00.699Z,99986.34
2022-09-06T05:56:48.610Z,99993.25
2022-09-06T05:59:36.332Z,99981.22
2022-09-06T06:02:24.388Z,99989.81
2022-09-06T06:05:12.258Z,99980.22
2022-09-06T06:07:59.997Z,99998.50
2022-09-06T06:10:47.727Z,99997.06
2022-09-06T06:13:39.485Z,100001.75
2022-09-06T06:16:27.451Z,99994.13
2022-09-06T06:19:15.350Z,99999.34
2022-09-06T06:22:03.192Z,100002.63
2022-09-06T06:24:50.920Z,100008.06
2022-09-06T06:27:38.830Z,99993.81
2022-09-06T06:30:26.535Z,99996.81
2022-09-06T06:33:14.301Z,100010.28
2022-09-06T06:36:13.948Z,100018.13
2022-09-06T06:39:04.885Z,100020.06
2022-09-06T06:41:53.414Z,100026.03
2022-09-06T06:44:41.139Z,100015.59
2022-09-06T06:47:30.372Z,100023.75
2022-09-06T06:50:18.237Z,100007.53
2022-09-06T06:53:05.973Z,100019.69
2022-09-06T06:55:54.116Z,100013.81
2022-09-06T06:58:41.926Z,100008.53
2022-09-06T07:01:33.875Z,100013.78
2022-09-06T07:04:21.880Z,100012.59
2022-09-06T07:13:20.702Z,100017.38
2022-09-06T07:16:15.244Z,100016.50
2022-09-06T07:19:03.940Z,100028.59
2022-09-06T07:21:51.746Z,100023.56
2022-09-06T07:24:39.596Z,100033.63
2022-09-06T07:30:37.346Z,100045.72
2022-09-06T07:33:25.380Z,100027.44
2022-09-06T07:36:13.136Z,100022.69
2022-09-06T07:39:01.136Z,100030.84
2022-09-06T07:41:49.129Z,100030.72
2022-09-06T07:44:36.938Z,100046.84
2022-09-06T07:50:49.255Z,100034.66
2022-09-06T07:53:39.843Z,100035.22
2022-09-06T07:56:27.568Z,100044.66
2022-09-06T07:59:18.090Z,100003.16
2022-09-06T08:02:06.314Z,100042.94
2022-09-06T08:04:54.192Z,100036.63
2022-09-06T08:07:41.979Z,100033.84
2022-09-06T08:10:32.011Z,100003.13
2022-09-06T08:13:19.867Z,100043.16
2022-09-06T08:16:11.716Z,100037.63
2022-09-06T08:19:02.925Z,100045.88
2022-09-06T08:21:56.347Z,100038.13
2022-09-06T08:24:44.207Z,100032.38
2022-09-06T08:27:35.184Z,100031.78
2022-09-06T08:30:23.123Z,100039.91
2022-09-06T08:33:15.798Z,100043.25
2022-09-06T08:36:04.947Z,100039.72
2022-09-06T08:38:52.929Z,100038.69
2022-09-06T08:41:56.743Z,100035.16
2022-09-06T08:44:55.115Z,100026.13
2022-09-06T08:47:46.260Z,100027.41
2022-09-06T08:50:38.651Z,100037.88
2022-09-06T08:53:27.157Z,100024.13
2022-09-06T08:56:29.716Z,100033.16
2022-09-06T08:59:19.940Z,100019.09
2022-09-06T09:02:23.106Z,100020.81
2022-09-06T09:05:23.660Z,100016.53
2022-09-06T09:08:29.447Z,100001.84
2022-09-06T09:11:25.268Z,100009.56
2022-09-06T09:14:22.774Z,100009.97
2022-09-06T09:17:24.786Z,100004.16
2022-09-06T09:20:17.410Z,99999.84
2022-09-06T09:23:15.495Z,100002.13
2022-09-06T09:26:15.508Z,99982.66
2022-09-06T09:29:15.009Z,99998.25
2022-09-06T09:32:08.069Z,99970.03
2022-09-06T09:35:20.136Z,99992.28
2022-09-06T09:38:27.449Z,99975.22
2022-09-06T09:41:36.036Z,99972.81
2022-09-06T09:44:29.841Z,99968.53
2022-09-06T09:47:32.604Z,99964.63
2022-09-06T09:50:36.358Z,99958.56
2022-09-06T09:53:29.331Z,99955.59
2022-09-06T09:56:32.841Z,99951.47
2022-09-06T09:59:33.800Z,99933.16
2022-09-06T10:02:42.131Z,99951.00
2022-09-06T10:05:34.825Z,99931.38
2022-09-06T10:08:29.035Z,99945.94
2022-09-06T10:11:48.600Z,99926.06
2022-09-06T10:14:46.967Z,99940.31
2022-09-06T10:17:37.655Z,99913.72
2022-09-06T10:21:03.391Z,99937.56
2022-09-06T10:24:27.952Z,99939.72
2022-09-06T10:27:23.908Z,99921.56
2022-09-06T10:30:13.993Z,99930.66
2022-09-06T10:33:27.867Z,99941.69
2022-09-06T10:36:22.650Z,99941.31
2022-09-06T10:39:46.858Z,99918.56
2022-09-06T10:42:47.913Z,99927.50
2022-09-06T10:45:41.105Z,99930.53
2022-09-06T10:48:39.359Z,99916.84
2022-09-06T10:51:38.548Z,99920.28
2022-09-06T10:54:26.748Z,99910.25
2022-09-06T11:00:46.779Z,99905.88
2022-09-06T11:04:01.914Z,99899.63
2022-09-06T11:06:56.642Z,99889.56
2022-09-06T11:09:53.305Z,99897.72
2022-09-06T11:12:54.636Z,99901.66
2022-09-06T11:15:47.781Z,99896.59
2022-09-06T11:19:05.263Z,99903.81
2022-09-06T11:22:01.603Z,99891.81
2022-09-06T11:25:25.436Z,99891.06
2022-09-06T11:28:30.644Z,99878.91
2022-09-06T11:34:41.116Z,99874.34
2022-09-06T11:37:35.343Z,99869.97
2022-09-06T11:40:29.697Z,99863.31
2022-09-06T11:43:43.936Z,99869.16
2022-09-06T11:46:34.638Z,99867.09
2022-09-06T11:49:33.654Z,99877.56
2022-09-06T11:52:59.503Z,99860.66
2022-09-06T11:56:03.729Z,99863.47
2022-09-06T11:59:00.354Z,99856.84
2022-09-06T12:02:42.363Z,99859.47
2022-09-06T12:05:32.148Z,99859.84
2022-09-06T12:08:30.884Z,99838.41
2022-09-06T12:11:44.149Z,99847.13
2022-09-06T12:14:43.179Z,99855.44
2022-09-06T12:17:47.672Z,99845.41
2022-09-06T12:20:53.130Z,99850.66
2022-09-06T12:23:42.716Z,99837.78
2022-09-06T12:26:56.052Z,99857.09
2022-09-06T12:29:58.509Z,99852.75
2022-09-06T12:32:49.640Z,99851.00
2022-09-06T12:39:02.395Z,99836.59
2022-09-06T12:42:06.689Z,99834.31
2022-09-06T12:44:55.563Z,99822.50
2022-09-06T12:47:43.335Z,99813.59
2022-09-06T12:50:31.601Z,99815.44
2022-09-06T12:53:24.606Z,99818.84
2022-09-06T12:56:12.952Z,99809.41
2022-09-06T12:59:27.019Z,99807.72
2022-09-06T13:02:24.294Z,99785.88
2022-09-06T13:05:13.243Z,99796.44
2022-09-06T13:08:03.535Z,99798.59
2022-09-06T13:10:51.627Z,99785.47
2022-09-06T13:13:52.082Z,99776.53
2022-09-06T13:16:50.623Z,99759.66
2022-09-06T13:19:40.495Z,99773.59
2022-09-06T13:22:45.493Z,99777.34
2022-09-06T13:25:49.796Z,99763.66
2022-09-06T13:28:37.843Z,99770.13
2022-09-06T13:31:27.246Z,99773.16
2022-09-06T13:34:49.576Z,99762.16
2022-09-06T13:37:40.786Z,99757.34
2022-09-06T13:41:09.823Z,99771.53
2022-09-06T13:44:21.902Z,99753.16
2022-09-06T13:47:09.713Z,99764.72
2022-09-06T13:49:57.499Z,99751.34
2022-09-06T13:52:47.887Z,99738.75
2022-09-06T13:55:35.851Z,99763.34
2022-09-06T13:58:29.816Z,99749.75
2022-09-06T14:01:17.760Z,99746.25
2022-09-06T14:04:11.714Z,99745.25
2022-09-06T14:06:59.711Z,99749.22
2022-09-06T14:09:47.814Z,99742.16
2022-09-06T14:12:36.055Z,99743.06
2022-09-06T14:15:23.902Z,99730.53
2022-09-06T14:18:14.442Z,99728.38
2022-09-06T14:21:02.611Z,99730.31
2022-09-06T14:23:52.606Z,99728.63
2022-09-06T14:26:40.438Z,99729.66
2022-09-06T14:29:28.467Z,99730.84
2022-09-06T14:32:20.523Z,99744.91
2022-09-06T14:35:12.479Z,99723.03
2022-09-06T14:38:00.321Z,99713.69
2022-09-06T14:40:48.109Z,99720.44
2022-09-06T14:48:03.225Z,99712.28
2022-09-06T14:55:18.677Z,99702.03
2022-09-06T14:58:06.426Z,99695.63
2022-09-06T15:00:54.629Z,99695.66
2022-09-06T15:03:48.522Z,99698.06
2022-09-06T15:06:40.241Z,99694.28
2022-09-06T15:09:31.068Z,99699.75
2022-09-06T15:12:21.888Z,99665.41
2022-09-06T15:15:14.545Z,99671.28
2022-09-06T15:18:08.352Z,99687.06
2022-09-06T15:20:58.765Z,99673.47
2022-09-06T15:23:54.343Z,99679.34
2022-09-06T15:26:46.107Z,99678.34
2022-09-06T15:29:36.611Z,99664.22
2022-09-06T15:32:27.394Z,99693.78
2022-09-06T15:35:15.935Z,99653.94
2022-09-06T15:38:04.588Z,99688.00
2022-09-06T15:40:52.452Z,99690.69
2022-09-06T15:43:47.039Z,99687.84
2022-09-06T15:46:59.804Z,99681.59
2022-09-06T15:49:52.549Z,99685.22
2022-09-06T15:52:40.394Z,99675.81
2022-09-06T15:55:46.864Z,99675.97
2022-09-06T15:58:34.895Z,99692.19
2022-09-06T16:01:26.995Z,99703.44
2022-09-06T16:04:17.012Z,99681.34
2022-09-06T16:07:05.700Z,99695.38
2022-09-06T16:09:53.404Z,99693.91
2022-09-06T16:12:48.609Z,99699.69
2022-09-06T16:15:38.207Z,99695.47
2022-09-06T16:18:33.545Z,99701.66
2022-09-06T16:21:25.285Z,99708.53
2022-09-06T16:24:13.931Z,99697.41
2022-09-06T16:27:02.834Z,99694.09
2022-09-06T16:29:50.614Z,99705.47
2022-09-06T16:32:44.457Z,99706.50
2022-09-06T16:35:32.181Z,99717.94
2022-09-06T16:38:19.857Z,99726.94
2022-09-06T16:41:21.931Z,99730.19
2022-09-06T16:44:16.276Z,99698.69
2022-09-06T16:47:05.286Z,99692.22
2022-09-06T16:49:53.048Z,99686.22
2022-09-06T16:52:41.013Z,99684.38
2022-09-06T16:55:29.018Z,99690.28
2022-09-06T16:58:17.946Z,99700.16
2022-09-06T17:01:06.495Z,99701.72
2022-09-06T17:03:54.787Z,99763.38
2022-09-06T17:06:44.367Z,99784.44
2022-09-06T17:09:34.379Z,99794.97
2022-09-06T17:12:22.179Z,99809.09
2022-09-06T17:15:10.576Z,99811.50
2022-09-06T17:17:58.320Z,99811.69
2022-09-06T17:21:04.628Z,99831.28
2022-09-06T17:23:53.207Z,99820.28
2022-09-06T17:26:41.118Z,99818.81
2022-09-06T17:29:29.223Z,99826.84
2022-09-06T17:32:16.932Z,99842.50
2022-09-06T17:35:05.337Z,99851.59
2022-09-06T17:37:56.137Z,99868.09
2022-09-06T17:40:43.863Z,99884.72
2022-09-06T17:43:32.487Z,99887.34
2022-09-06T17:46:28.450Z,99879.78
2022-09-06T17:49:18.665Z,99878.56
2022-09-06T17:52:06.427Z,99870.28
2022-09-06T17:54:55.006Z,99868.31
2022-09-06T17:57:42.811Z,99857.69
2022-09-06T18:00:30.937Z,99844.00
2022-09-06T18:03:18.667Z,99841.50
2022-09-06T18:06:15.899Z,99821.00
2022-09-06T18:09:11.433Z,99820.50
2022-09-06T18:11:59.487Z,99815.06
2022-09-06T18:14:47.458Z,99819.56
2022-09-06T18:17:35.212Z,99811.63
2022-09-06T18:20:25.383Z,99803.91
2022-09-06T18:23:13.154Z,99807.28
2022-09-06T18:26:07.648Z,99784.16
2022-09-06T18:28:55.498Z,99764.22
2022-09-06T18:31:44.336Z,99710.38
2022-09-06T18:34:32.167Z,99737.47
2022-09-06T18:37:19.937Z,99750.53
2022-09-06T18:40:11.376Z,99767.88
2022-09-06T18:42:59.237Z,99750.25
2022-09-06T18:45:47.056Z,99728.03
2022-09-06T18:48:36.689Z,99727.00
2022-09-06T18:51:24.540Z,99681.06
2022-09-06T18:54:13.113Z,99702.25
2022-09-06T18:57:00.907Z,99695.63
2022-09-06T18:59:48.640Z,99681.59
2022-09-06T19:02:36.381Z,99702.00
2022-09-06T19:05:24.162Z,99692.81
2022-09-06T19:08:12.025Z,99708.63
2022-09-06T19:11:07.533Z,99699.38
2022-09-06T19:13:57.821Z,99693.72
2022-09-06T19:16:46.362Z,99685.78
2022-09-06T19:19:34.208Z,99690.34
2022-09-06T19:22:22.777Z,99690.03
2022-09-06T19:25:10.904Z,99652.56
2022-09-06T19:27:59.018Z,99664.31
2022-09-06T19:30:46.780Z,99671.38
2022-09-06T19:33:36.296Z,99658.66
2022-09-06T19:36:25.987Z,99655.81
2022-09-06T19:39:15.921Z,99662.72
2022-09-06T19:42:04.213Z,99654.34
2022-09-06T19:44:52.103Z,99626.56
2022-09-06T19:47:40.055Z,99642.81
2022-09-06T19:50:28.062Z,99638.00
2022-09-06T19:53:15.900Z,99641.81
2022-09-06T19:56:24.812Z,99641.56
2022-09-06T19:59:14.083Z,99624.97
2022-09-06T20:02:03.377Z,99619.13
2022-09-06T20:04:51.283Z,99626.03
2022-09-06T20:07:39.109Z,99637.75
2022-09-06T20:10:26.838Z,99645.78
2022-09-06T20:13:14.553Z,99638.28
2022-09-06T20:16:08.506Z,99640.38
2022-09-06T20:18:58.852Z,99636.78
2022-09-06T20:21:46.723Z,99629.72
2022-09-06T20:24:34.595Z,99613.09
2022-09-06T20:27:22.488Z,99622.78
2022-09-06T20:30:11.081Z,99634.56
2022-09-06T20:33:01.899Z,99627.94
2022-09-06T20:35:58.152Z,99637.38
2022-09-06T20:38:47.865Z,99629.72
2022-09-06T20:41:35.711Z,99636.34
2022-09-06T20:44:23.524Z,99637.13
2022-09-06T20:47:11.285Z,99640.97
2022-09-06T20:49:59.061Z,99645.84
2022-09-06T20:52:46.909Z,99658.09
2022-09-06T20:55:34.707Z,99663.00
2022-09-06T20:58:22.473Z,99669.66
2022-09-06T21:01:22.201Z,99669.13
2022-09-06T21:04:12.367Z,99666.84
2022-09-06T21:07:00.221Z,99655.09
2022-09-06T21:09:48.032Z,99662.78
2022-09-06T21:12:35.848Z,99650.53
2022-09-06T21:15:23.572Z,99665.34
2022-09-06T21:18:11.326Z,99670.47
2022-09-06T21:21:01.550Z,99676.56
2022-09-06T21:23:49.782Z,99659.22
2022-09-06T21:26:38.021Z,99672.50
2022-09-06T21:29:25.751Z,99644.44
2022-09-06T21:32:13.534Z,99663.56
2022-09-06T21:35:01.334Z,99670.69
2022-09-06T21:37:49.142Z,99668.91
2022-09-06T21:40:36.899Z,99665.31
2022-09-06T21:43:24.888Z,99664.53
2022-09-06T21:46:20.308Z,99661.50
2022-09-06T21:49:12.041Z,99673.97
2022-09-06T21:52:00.060Z,99656.34
2022-09-06T21:54:47.817Z,99672.19
2022-09-06T21:57:35.576Z,99664.78
2022-09-06T22:00:23.361Z,99640.03
2022-09-06T22:03:11.070Z,99658.41
2022-09-06T22:05:59.274Z,99661.47
2022-09-06T22:08:47.818Z,99656.91
2022-09-06T22:11:35.980Z,99653.56
2022-09-06T22:14:23.762Z,99645.16
2022-09-06T22:17:11.510Z,99657.13
2022-09-06T22:19:59.318Z,99656.13
2022-09-06T22:22:47.078Z,99658.16
2022-09-06T22:25:34.990Z,99657.66
2022-09-06T22:28:22.859Z,99652.56
2022-09-06T22:31:10.877Z,99647.97
2022-09-06T22:33:59.375Z,99641.59
2022-09-06T22:36:47.261Z,99644.13
2022-09-06T22:39:35.046Z,99627.59
2022-09-06T22:42:22.749Z,99632.91
2022-09-06T22:45:10.754Z,99612.50
2022-09-06T22:47:59.277Z,99618.66
2022-09-06T22:50:47.105Z,99631.41
2022-09-06T22:53:35.358Z,99627.84
2022-09-06T22:56:23.152Z,99621.22
2022-09-06T22:59:11.038Z,99619.91
2022-09-06T23:01:58.838Z,99621.22
2022-09-06T23:04:46.729Z,99617.63
2022-09-06T23:07:34.504Z,99614.06
2022-09-06T23:10:22.909Z,99599.53
2022-09-06T23:13:11.404Z,99614.28
2022-09-06T23:16:08.010Z,99619.91
2022-09-06T23:18:55.828Z,99612.25
2022-09-06T23:21:43.628Z,99623.75
2022-09-06T23:24:31.374Z,99630.38
2022-09-06T23:27:19.273Z,99649.00
2022-09-06T23:30:08.115Z,99650.53
2022-09-06T23:32:56.425Z,99639.81
2022-09-06T23:35:44.393Z,99644.66
2022-09-06T23:38:34.487Z,99645.47
2022-09-06T23:41:22.719Z,99630.88
2022-09-06T23:44:10.546Z,99630.13
2022-09-06T23:46:58.378Z,99630.88
2022-09-06T23:49:46.645Z,99635.50
2022-09-06T23:52:34.454Z,99622.22
2022-09-06T23:55:22.185Z,99644.44
2022-09-06T23:58:10.298Z,99606.16
